sensor_id;sensor_type;location;lat;lon;timestamp;P1;durP1;ratioP1;P2;durP2;ratioP2
44169;SDS011;29836;52.286;9.576;2023-04-06T00:00:48;3.63;;;1.90;;
44169;SDS011;29836;52.286;9.576;2023-04-06T00:03:14;3.55;;;2.08;;
44169;SDS011;29836;52.286;9.576;2023-04-06T00:05:40;5.00;;;2.45;;
44169;SDS011;29836;52.286;9.576;2023-04-06T00:08:06;2.85;;;2.20;;
44169;SDS011;29836;52.286;9.576;2023-04-06T00:10:31;3.78;;;2.00;;
44169;SDS011;29836;52.286;9.576;2023-04-06T00:12:57;6.38;;;2.45;;
44169;SDS011;29836;52.286;9.576;2023-04-06T00:15:24;4.10;;;2.15;;
44169;SDS011;29836;52.286;9.576;2023-04-06T00:17:50;5.20;;;2.15;;
44169;SDS011;29836;52.286;9.576;2023-04-06T00:20:15;3.90;;;1.92;;
44169;SDS011;29836;52.286;9.576;2023-04-06T00:22:42;3.30;;;2.30;;
44169;SDS011;29836;52.286;9.576;2023-04-06T00:25:08;4.10;;;2.55;;
44169;SDS011;29836;52.286;9.576;2023-04-06T00:27:35;4.63;;;2.63;;
44169;SDS011;29836;52.286;9.576;2023-04-06T00:30:01;5.03;;;2.17;;
44169;SDS011;29836;52.286;9.576;2023-04-06T00:32:28;5.97;;;3.63;;
44169;SDS011;29836;52.286;9.576;2023-04-06T00:34:53;5.95;;;2.83;;
44169;SDS011;29836;52.286;9.576;2023-04-06T00:37:18;6.97;;;2.45;;
44169;SDS011;29836;52.286;9.576;2023-04-06T00:39:44;5.53;;;2.80;;
44169;SDS011;29836;52.286;9.576;2023-04-06T00:42:13;4.80;;;2.33;;
44169;SDS011;29836;52.286;9.576;2023-04-06T00:44:40;5.32;;;2.83;;
44169;SDS011;29836;52.286;9.576;2023-04-06T00:47:06;4.15;;;2.63;;
44169;SDS011;29836;52.286;9.576;2023-04-06T00:49:32;4.50;;;2.83;;
44169;SDS011;29836;52.286;9.576;2023-04-06T00:51:58;4.70;;;2.92;;
44169;SDS011;29836;52.286;9.576;2023-04-06T00:54:24;7.55;;;3.15;;
44169;SDS011;29836;52.286;9.576;2023-04-06T00:56:50;4.18;;;2.70;;
44169;SDS011;29836;52.286;9.576;2023-04-06T00:59:16;5.25;;;2.60;;
44169;SDS011;29836;52.286;9.576;2023-04-06T01:01:41;5.53;;;2.83;;
44169;SDS011;29836;52.286;9.576;2023-04-06T01:04:07;5.43;;;3.03;;
44169;SDS011;29836;52.286;9.576;2023-04-06T01:06:33;7.15;;;3.20;;
44169;SDS011;29836;52.286;9.576;2023-04-06T01:08:58;5.25;;;2.67;;
44169;SDS011;29836;52.286;9.576;2023-04-06T01:11:24;4.95;;;2.80;;
44169;SDS011;29836;52.286;9.576;2023-04-06T01:13:51;5.55;;;3.00;;
44169;SDS011;29836;52.286;9.576;2023-04-06T01:16:16;4.32;;;2.67;;
44169;SDS011;29836;52.286;9.576;2023-04-06T01:18:42;4.25;;;2.55;;
44169;SDS011;29836;52.286;9.576;2023-04-06T01:21:08;4.07;;;2.20;;
44169;SDS011;29836;52.286;9.576;2023-04-06T01:23:35;5.20;;;2.60;;
44169;SDS011;29836;52.286;9.576;2023-04-06T01:26:00;5.18;;;2.63;;
44169;SDS011;29836;52.286;9.576;2023-04-06T01:28:26;5.30;;;3.05;;
44169;SDS011;29836;52.286;9.576;2023-04-06T01:30:51;6.25;;;3.08;;
44169;SDS011;29836;52.286;9.576;2023-04-06T01:33:17;7.22;;;3.30;;
44169;SDS011;29836;52.286;9.576;2023-04-06T01:35:43;7.05;;;3.55;;
44169;SDS011;29836;52.286;9.576;2023-04-06T01:38:08;6.22;;;3.20;;
44169;SDS011;29836;52.286;9.576;2023-04-06T01:40:34;4.05;;;2.38;;
44169;SDS011;29836;52.286;9.576;2023-04-06T01:43:00;4.30;;;2.92;;
44169;SDS011;29836;52.286;9.576;2023-04-06T01:45:25;4.88;;;2.92;;
44169;SDS011;29836;52.286;9.576;2023-04-06T01:47:51;5.63;;;2.90;;
44169;SDS011;29836;52.286;9.576;2023-04-06T01:50:16;7.45;;;3.22;;
44169;SDS011;29836;52.286;9.576;2023-04-06T01:52:42;4.30;;;2.47;;
44169;SDS011;29836;52.286;9.576;2023-04-06T01:55:07;5.13;;;2.97;;
44169;SDS011;29836;52.286;9.576;2023-04-06T01:57:33;4.88;;;2.85;;
44169;SDS011;29836;52.286;9.576;2023-04-06T01:59:59;3.97;;;2.40;;
44169;SDS011;29836;52.286;9.576;2023-04-06T02:02:25;3.35;;;2.00;;
44169;SDS011;29836;52.286;9.576;2023-04-06T02:04:50;5.75;;;3.03;;
44169;SDS011;29836;52.286;9.576;2023-04-06T02:07:16;3.72;;;2.33;;
44169;SDS011;29836;52.286;9.576;2023-04-06T02:09:41;4.05;;;2.20;;
44169;SDS011;29836;52.286;9.576;2023-04-06T02:12:07;3.70;;;1.98;;
44169;SDS011;29836;52.286;9.576;2023-04-06T02:14:32;5.10;;;2.90;;
44169;SDS011;29836;52.286;9.576;2023-04-06T02:16:58;4.22;;;2.83;;
44169;SDS011;29836;52.286;9.576;2023-04-06T02:19:23;4.25;;;2.38;;
44169;SDS011;29836;52.286;9.576;2023-04-06T02:21:49;5.40;;;2.90;;
44169;SDS011;29836;52.286;9.576;2023-04-06T02:24:14;4.53;;;2.42;;
44169;SDS011;29836;52.286;9.576;2023-04-06T02:26:40;3.58;;;2.20;;
44169;SDS011;29836;52.286;9.576;2023-04-06T02:29:05;3.60;;;2.40;;
44169;SDS011;29836;52.286;9.576;2023-04-06T02:31:31;3.90;;;2.30;;
44169;SDS011;29836;52.286;9.576;2023-04-06T02:33:56;6.90;;;3.00;;
44169;SDS011;29836;52.286;9.576;2023-04-06T02:36:22;3.47;;;2.17;;
44169;SDS011;29836;52.286;9.576;2023-04-06T02:38:47;4.10;;;2.10;;
44169;SDS011;29836;52.286;9.576;2023-04-06T02:41:13;3.75;;;2.30;;
44169;SDS011;29836;52.286;9.576;2023-04-06T02:43:38;5.88;;;2.50;;
44169;SDS011;29836;52.286;9.576;2023-04-06T02:46:04;10.43;;;3.03;;
44169;SDS011;29836;52.286;9.576;2023-04-06T02:48:29;3.42;;;2.20;;
44169;SDS011;29836;52.286;9.576;2023-04-06T02:50:55;6.57;;;3.13;;
44169;SDS011;29836;52.286;9.576;2023-04-06T02:53:20;4.75;;;2.90;;
44169;SDS011;29836;52.286;9.576;2023-04-06T02:55:46;5.72;;;2.25;;
44169;SDS011;29836;52.286;9.576;2023-04-06T02:58:11;11.73;;;3.20;;
44169;SDS011;29836;52.286;9.576;2023-04-06T03:00:37;4.65;;;2.63;;
44169;SDS011;29836;52.286;9.576;2023-04-06T03:03:02;4.00;;;2.55;;
44169;SDS011;29836;52.286;9.576;2023-04-06T03:05:28;3.88;;;2.85;;
44169;SDS011;29836;52.286;9.576;2023-04-06T03:07:53;4.18;;;2.50;;
44169;SDS011;29836;52.286;9.576;2023-04-06T03:10:19;3.53;;;2.28;;
44169;SDS011;29836;52.286;9.576;2023-04-06T03:12:45;10.95;;;3.13;;
44169;SDS011;29836;52.286;9.576;2023-04-06T03:15:11;6.35;;;2.67;;
44169;SDS011;29836;52.286;9.576;2023-04-06T03:17:36;5.57;;;3.00;;
44169;SDS011;29836;52.286;9.576;2023-04-06T03:20:02;4.65;;;2.40;;
44169;SDS011;29836;52.286;9.576;2023-04-06T03:22:28;5.63;;;2.53;;
44169;SDS011;29836;52.286;9.576;2023-04-06T03:24:54;5.13;;;2.50;;
44169;SDS011;29836;52.286;9.576;2023-04-06T03:27:19;4.65;;;2.50;;
44169;SDS011;29836;52.286;9.576;2023-04-06T03:29:45;6.45;;;3.45;;
44169;SDS011;29836;52.286;9.576;2023-04-06T03:32:11;5.78;;;2.13;;
44169;SDS011;29836;52.286;9.576;2023-04-06T03:34:36;4.40;;;2.38;;
44169;SDS011;29836;52.286;9.576;2023-04-06T03:37:02;3.78;;;2.53;;
44169;SDS011;29836;52.286;9.576;2023-04-06T03:39:28;5.30;;;3.05;;
44169;SDS011;29836;52.286;9.576;2023-04-06T03:41:53;6.47;;;2.85;;
44169;SDS011;29836;52.286;9.576;2023-04-06T03:44:19;5.28;;;2.90;;
44169;SDS011;29836;52.286;9.576;2023-04-06T03:46:44;4.78;;;2.95;;
44169;SDS011;29836;52.286;9.576;2023-04-06T03:49:10;5.30;;;2.55;;
44169;SDS011;29836;52.286;9.576;2023-04-06T03:54:11;5.28;;;3.10;;
44169;SDS011;29836;52.286;9.576;2023-04-06T03:56:36;5.25;;;2.80;;
44169;SDS011;29836;52.286;9.576;2023-04-06T03:59:02;8.07;;;3.90;;
44169;SDS011;29836;52.286;9.576;2023-04-06T04:01:27;6.25;;;2.47;;
44169;SDS011;29836;52.286;9.576;2023-04-06T04:03:53;4.53;;;2.60;;
44169;SDS011;29836;52.286;9.576;2023-04-06T04:06:18;8.43;;;3.45;;
44169;SDS011;29836;52.286;9.576;2023-04-06T04:08:44;5.95;;;3.28;;
44169;SDS011;29836;52.286;9.576;2023-04-06T04:11:09;7.35;;;2.97;;
44169;SDS011;29836;52.286;9.576;2023-04-06T04:13:35;4.63;;;2.88;;
44169;SDS011;29836;52.286;9.576;2023-04-06T04:16:00;5.30;;;2.53;;
44169;SDS011;29836;52.286;9.576;2023-04-06T04:18:26;4.20;;;2.60;;
44169;SDS011;29836;52.286;9.576;2023-04-06T04:20:51;4.80;;;2.72;;
44169;SDS011;29836;52.286;9.576;2023-04-06T04:23:17;7.68;;;3.35;;
44169;SDS011;29836;52.286;9.576;2023-04-06T04:25:43;7.20;;;3.00;;
44169;SDS011;29836;52.286;9.576;2023-04-06T04:28:08;5.28;;;3.25;;
44169;SDS011;29836;52.286;9.576;2023-04-06T04:30:34;7.72;;;3.05;;
44169;SDS011;29836;52.286;9.576;2023-04-06T04:33:00;6.60;;;3.30;;
44169;SDS011;29836;52.286;9.576;2023-04-06T04:35:26;6.88;;;2.75;;
44169;SDS011;29836;52.286;9.576;2023-04-06T04:37:51;4.35;;;2.65;;
44169;SDS011;29836;52.286;9.576;2023-04-06T04:40:17;11.60;;;3.45;;
44169;SDS011;29836;52.286;9.576;2023-04-06T04:42:42;6.75;;;3.67;;
44169;SDS011;29836;52.286;9.576;2023-04-06T04:45:08;5.97;;;2.60;;
44169;SDS011;29836;52.286;9.576;2023-04-06T04:47:34;7.65;;;3.88;;
44169;SDS011;29836;52.286;9.576;2023-04-06T04:50:00;4.63;;;2.83;;
44169;SDS011;29836;52.286;9.576;2023-04-06T04:52:25;5.18;;;2.70;;
44169;SDS011;29836;52.286;9.576;2023-04-06T04:54:51;4.95;;;2.88;;
44169;SDS011;29836;52.286;9.576;2023-04-06T04:57:16;5.10;;;3.40;;
44169;SDS011;29836;52.286;9.576;2023-04-06T04:59:42;5.57;;;3.15;;
44169;SDS011;29836;52.286;9.576;2023-04-06T05:02:08;4.93;;;3.22;;
44169;SDS011;29836;52.286;9.576;2023-04-06T05:04:33;3.72;;;2.78;;
44169;SDS011;29836;52.286;9.576;2023-04-06T05:07:03;6.20;;;3.80;;
44169;SDS011;29836;52.286;9.576;2023-04-06T05:09:32;6.93;;;3.47;;
44169;SDS011;29836;52.286;9.576;2023-04-06T05:11:58;6.93;;;2.80;;
44169;SDS011;29836;52.286;9.576;2023-04-06T05:14:25;5.18;;;3.50;;
44169;SDS011;29836;52.286;9.576;2023-04-06T05:16:51;5.40;;;2.63;;
44169;SDS011;29836;52.286;9.576;2023-04-06T05:19:16;5.90;;;2.75;;
44169;SDS011;29836;52.286;9.576;2023-04-06T05:21:42;4.07;;;2.88;;
44169;SDS011;29836;52.286;9.576;2023-04-06T05:24:08;5.95;;;3.42;;
44169;SDS011;29836;52.286;9.576;2023-04-06T05:26:33;5.57;;;2.85;;
44169;SDS011;29836;52.286;9.576;2023-04-06T05:28:59;5.88;;;3.50;;
44169;SDS011;29836;52.286;9.576;2023-04-06T05:31:25;5.20;;;3.00;;
44169;SDS011;29836;52.286;9.576;2023-04-06T05:33:50;5.47;;;3.35;;
44169;SDS011;29836;52.286;9.576;2023-04-06T05:36:16;5.95;;;3.63;;
44169;SDS011;29836;52.286;9.576;2023-04-06T05:38:41;6.28;;;3.30;;
44169;SDS011;29836;52.286;9.576;2023-04-06T05:41:07;6.30;;;3.63;;
44169;SDS011;29836;52.286;9.576;2023-04-06T05:43:32;5.65;;;3.15;;
44169;SDS011;29836;52.286;9.576;2023-04-06T05:45:58;7.50;;;3.40;;
44169;SDS011;29836;52.286;9.576;2023-04-06T05:48:24;5.60;;;2.90;;
44169;SDS011;29836;52.286;9.576;2023-04-06T05:50:50;5.88;;;3.20;;
44169;SDS011;29836;52.286;9.576;2023-04-06T05:53:16;6.20;;;3.20;;
44169;SDS011;29836;52.286;9.576;2023-04-06T05:55:42;5.15;;;3.05;;
44169;SDS011;29836;52.286;9.576;2023-04-06T05:58:09;4.25;;;2.72;;
44169;SDS011;29836;52.286;9.576;2023-04-06T06:00:35;6.63;;;3.38;;
44169;SDS011;29836;52.286;9.576;2023-04-06T06:03:00;6.03;;;3.80;;
44169;SDS011;29836;52.286;9.576;2023-04-06T06:05:29;6.22;;;3.70;;
44169;SDS011;29836;52.286;9.576;2023-04-06T06:07:54;7.55;;;3.58;;
44169;SDS011;29836;52.286;9.576;2023-04-06T06:10:20;6.07;;;3.10;;
44169;SDS011;29836;52.286;9.576;2023-04-06T06:12:45;5.18;;;3.38;;
44169;SDS011;29836;52.286;9.576;2023-04-06T06:15:11;4.85;;;3.05;;
44169;SDS011;29836;52.286;9.576;2023-04-06T06:17:36;7.72;;;3.28;;
44169;SDS011;29836;52.286;9.576;2023-04-06T06:20:03;9.45;;;3.38;;
44169;SDS011;29836;52.286;9.576;2023-04-06T06:22:30;12.13;;;3.85;;
44169;SDS011;29836;52.286;9.576;2023-04-06T06:24:56;5.45;;;3.13;;
44169;SDS011;29836;52.286;9.576;2023-04-06T06:27:21;8.05;;;3.67;;
44169;SDS011;29836;52.286;9.576;2023-04-06T06:29:47;4.38;;;3.10;;
44169;SDS011;29836;52.286;9.576;2023-04-06T06:32:13;4.97;;;2.92;;
44169;SDS011;29836;52.286;9.576;2023-04-06T06:34:39;11.00;;;3.35;;
44169;SDS011;29836;52.286;9.576;2023-04-06T06:37:05;6.35;;;3.53;;
44169;SDS011;29836;52.286;9.576;2023-04-06T06:39:31;5.72;;;3.03;;
44169;SDS011;29836;52.286;9.576;2023-04-06T06:41:56;5.75;;;3.67;;
44169;SDS011;29836;52.286;9.576;2023-04-06T06:44:22;7.45;;;3.58;;
44169;SDS011;29836;52.286;9.576;2023-04-06T06:46:47;5.60;;;2.80;;
44169;SDS011;29836;52.286;9.576;2023-04-06T06:49:13;8.98;;;3.67;;
44169;SDS011;29836;52.286;9.576;2023-04-06T06:51:39;6.25;;;2.80;;
44169;SDS011;29836;52.286;9.576;2023-04-06T06:54:05;5.78;;;2.88;;
44169;SDS011;29836;52.286;9.576;2023-04-06T06:56:30;8.38;;;3.55;;
44169;SDS011;29836;52.286;9.576;2023-04-06T06:58:56;5.45;;;2.92;;
44169;SDS011;29836;52.286;9.576;2023-04-06T07:01:21;5.43;;;3.33;;
44169;SDS011;29836;52.286;9.576;2023-04-06T07:03:47;6.72;;;3.15;;
44169;SDS011;29836;52.286;9.576;2023-04-06T07:06:13;5.03;;;2.80;;
44169;SDS011;29836;52.286;9.576;2023-04-06T07:08:38;6.10;;;3.00;;
44169;SDS011;29836;52.286;9.576;2023-04-06T07:11:04;4.97;;;2.60;;
44169;SDS011;29836;52.286;9.576;2023-04-06T07:13:29;7.10;;;3.13;;
44169;SDS011;29836;52.286;9.576;2023-04-06T07:15:55;4.25;;;2.80;;
44169;SDS011;29836;52.286;9.576;2023-04-06T07:18:20;4.72;;;3.10;;
44169;SDS011;29836;52.286;9.576;2023-04-06T07:20:47;4.25;;;2.63;;
44169;SDS011;29836;52.286;9.576;2023-04-06T07:23:12;4.68;;;3.30;;
44169;SDS011;29836;52.286;9.576;2023-04-06T07:25:38;6.72;;;3.65;;
44169;SDS011;29836;52.286;9.576;2023-04-06T07:28:04;5.72;;;2.90;;
44169;SDS011;29836;52.286;9.576;2023-04-06T07:30:29;3.75;;;2.70;;
44169;SDS011;29836;52.286;9.576;2023-04-06T07:32:55;6.85;;;3.25;;
44169;SDS011;29836;52.286;9.576;2023-04-06T07:35:25;7.13;;;3.58;;
44169;SDS011;29836;52.286;9.576;2023-04-06T07:37:52;5.28;;;3.03;;
44169;SDS011;29836;52.286;9.576;2023-04-06T07:40:18;6.50;;;3.40;;
44169;SDS011;29836;52.286;9.576;2023-04-06T07:42:44;6.45;;;3.00;;
44169;SDS011;29836;52.286;9.576;2023-04-06T07:45:10;8.90;;;3.40;;
44169;SDS011;29836;52.286;9.576;2023-04-06T07:47:36;6.80;;;3.28;;
44169;SDS011;29836;52.286;9.576;2023-04-06T07:50:01;6.78;;;3.40;;
44169;SDS011;29836;52.286;9.576;2023-04-06T07:52:27;6.20;;;3.47;;
44169;SDS011;29836;52.286;9.576;2023-04-06T07:54:52;5.07;;;3.38;;
44169;SDS011;29836;52.286;9.576;2023-04-06T07:57:18;8.02;;;3.38;;
44169;SDS011;29836;52.286;9.576;2023-04-06T07:59:43;5.68;;;3.65;;
44169;SDS011;29836;52.286;9.576;2023-04-06T08:02:09;8.77;;;3.78;;
44169;SDS011;29836;52.286;9.576;2023-04-06T08:04:35;4.88;;;3.10;;
44169;SDS011;29836;52.286;9.576;2023-04-06T08:07:01;6.85;;;3.63;;
44169;SDS011;29836;52.286;9.576;2023-04-06T08:09:26;6.70;;;3.40;;
44169;SDS011;29836;52.286;9.576;2023-04-06T08:11:52;5.57;;;3.38;;
44169;SDS011;29836;52.286;9.576;2023-04-06T08:14:18;8.18;;;3.60;;
44169;SDS011;29836;52.286;9.576;2023-04-06T08:16:43;5.45;;;3.63;;
44169;SDS011;29836;52.286;9.576;2023-04-06T08:19:09;7.10;;;3.38;;
44169;SDS011;29836;52.286;9.576;2023-04-06T08:21:36;4.97;;;2.85;;
44169;SDS011;29836;52.286;9.576;2023-04-06T08:24:01;7.07;;;3.00;;
44169;SDS011;29836;52.286;9.576;2023-04-06T08:26:27;6.32;;;3.17;;
44169;SDS011;29836;52.286;9.576;2023-04-06T08:28:53;7.55;;;2.97;;
44169;SDS011;29836;52.286;9.576;2023-04-06T08:31:18;6.22;;;3.10;;
44169;SDS011;29836;52.286;9.576;2023-04-06T08:33:44;12.75;;;3.72;;
44169;SDS011;29836;52.286;9.576;2023-04-06T08:36:10;6.43;;;3.00;;
44169;SDS011;29836;52.286;9.576;2023-04-06T08:38:38;5.00;;;2.95;;
44169;SDS011;29836;52.286;9.576;2023-04-06T08:41:08;5.32;;;2.92;;
44169;SDS011;29836;52.286;9.576;2023-04-06T08:43:42;4.47;;;2.53;;
44169;SDS011;29836;52.286;9.576;2023-04-06T08:46:11;4.65;;;2.90;;
44169;SDS011;29836;52.286;9.576;2023-04-06T08:48:41;6.40;;;3.10;;
44169;SDS011;29836;52.286;9.576;2023-04-06T08:51:08;4.43;;;2.75;;
44169;SDS011;29836;52.286;9.576;2023-04-06T08:53:34;6.85;;;3.08;;
44169;SDS011;29836;52.286;9.576;2023-04-06T08:56:01;9.07;;;3.22;;
44169;SDS011;29836;52.286;9.576;2023-04-06T08:58:28;8.13;;;3.17;;
44169;SDS011;29836;52.286;9.576;2023-04-06T09:01:00;4.80;;;3.03;;
44169;SDS011;29836;52.286;9.576;2023-04-06T09:03:28;7.55;;;3.05;;
44169;SDS011;29836;52.286;9.576;2023-04-06T09:05:55;5.28;;;3.05;;
44169;SDS011;29836;52.286;9.576;2023-04-06T09:08:21;4.40;;;3.17;;
44169;SDS011;29836;52.286;9.576;2023-04-06T09:10:46;6.40;;;3.25;;
44169;SDS011;29836;52.286;9.576;2023-04-06T09:13:13;5.13;;;3.20;;
44169;SDS011;29836;52.286;9.576;2023-04-06T09:15:39;6.40;;;3.42;;
44169;SDS011;29836;52.286;9.576;2023-04-06T09:18:05;7.50;;;3.10;;
44169;SDS011;29836;52.286;9.576;2023-04-06T09:20:30;6.18;;;3.08;;
44169;SDS011;29836;52.286;9.576;2023-04-06T09:22:56;5.82;;;3.03;;
44169;SDS011;29836;52.286;9.576;2023-04-06T09:25:22;6.10;;;2.80;;
44169;SDS011;29836;52.286;9.576;2023-04-06T09:27:58;5.72;;;3.10;;
44169;SDS011;29836;52.286;9.576;2023-04-06T09:30:25;9.38;;;3.55;;
44169;SDS011;29836;52.286;9.576;2023-04-06T09:32:52;6.60;;;3.47;;
44169;SDS011;29836;52.286;9.576;2023-04-06T09:35:19;5.18;;;3.33;;
44169;SDS011;29836;52.286;9.576;2023-04-06T09:37:46;5.55;;;3.22;;
44169;SDS011;29836;52.286;9.576;2023-04-06T09:40:12;6.55;;;3.35;;
44169;SDS011;29836;52.286;9.576;2023-04-06T09:42:42;5.25;;;3.22;;
44169;SDS011;29836;52.286;9.576;2023-04-06T09:45:10;4.72;;;3.17;;
44169;SDS011;29836;52.286;9.576;2023-04-06T09:47:36;7.47;;;2.85;;
44169;SDS011;29836;52.286;9.576;2023-04-06T09:50:02;7.35;;;3.35;;
44169;SDS011;29836;52.286;9.576;2023-04-06T09:52:46;5.63;;;3.55;;
44169;SDS011;29836;52.286;9.576;2023-04-06T09:55:40;6.65;;;3.20;;
44169;SDS011;29836;52.286;9.576;2023-04-06T09:58:05;6.15;;;3.50;;
44169;SDS011;29836;52.286;9.576;2023-04-06T10:00:46;5.72;;;3.35;;
44169;SDS011;29836;52.286;9.576;2023-04-06T10:05:52;6.45;;;3.67;;
44169;SDS011;29836;52.286;9.576;2023-04-06T10:08:24;7.45;;;3.90;;
44169;SDS011;29836;52.286;9.576;2023-04-06T10:10:52;6.28;;;3.10;;
44169;SDS011;29836;52.286;9.576;2023-04-06T10:13:19;6.95;;;3.70;;
44169;SDS011;29836;52.286;9.576;2023-04-06T10:15:45;10.90;;;3.65;;
44169;SDS011;29836;52.286;9.576;2023-04-06T10:18:11;5.28;;;3.20;;
44169;SDS011;29836;52.286;9.576;2023-04-06T10:20:55;6.60;;;3.20;;
44169;SDS011;29836;52.286;9.576;2023-04-06T10:23:24;5.68;;;3.35;;
44169;SDS011;29836;52.286;9.576;2023-04-06T10:25:58;7.53;;;3.40;;
44169;SDS011;29836;52.286;9.576;2023-04-06T10:28:25;7.25;;;4.20;;
44169;SDS011;29836;52.286;9.576;2023-04-06T10:30:56;8.20;;;4.95;;
44169;SDS011;29836;52.286;9.576;2023-04-06T10:33:23;6.45;;;3.88;;
44169;SDS011;29836;52.286;9.576;2023-04-06T10:35:48;6.13;;;3.33;;
44169;SDS011;29836;52.286;9.576;2023-04-06T10:38:14;9.40;;;4.72;;
44169;SDS011;29836;52.286;9.576;2023-04-06T10:40:40;6.43;;;3.80;;
44169;SDS011;29836;52.286;9.576;2023-04-06T10:43:12;12.63;;;4.25;;
44169;SDS011;29836;52.286;9.576;2023-04-06T10:45:42;6.03;;;3.55;;
44169;SDS011;29836;52.286;9.576;2023-04-06T10:48:12;7.47;;;3.88;;
44169;SDS011;29836;52.286;9.576;2023-04-06T10:50:49;7.18;;;3.80;;
44169;SDS011;29836;52.286;9.576;2023-04-06T10:55:51;8.20;;;4.63;;
44169;SDS011;29836;52.286;9.576;2023-04-06T10:58:24;7.07;;;3.72;;
44169;SDS011;29836;52.286;9.576;2023-04-06T11:00:50;7.50;;;4.50;;
44169;SDS011;29836;52.286;9.576;2023-04-06T11:03:16;7.85;;;4.78;;
44169;SDS011;29836;52.286;9.576;2023-04-06T11:05:46;8.75;;;4.13;;
44169;SDS011;29836;52.286;9.576;2023-04-06T11:08:32;9.43;;;4.20;;
44169;SDS011;29836;52.286;9.576;2023-04-06T11:11:10;7.38;;;4.75;;
44169;SDS011;29836;52.286;9.576;2023-04-06T11:13:45;8.15;;;4.43;;
44169;SDS011;29836;52.286;9.576;2023-04-06T11:16:12;9.05;;;4.35;;
44169;SDS011;29836;52.286;9.576;2023-04-06T11:21:18;8.65;;;4.60;;
44169;SDS011;29836;52.286;9.576;2023-04-06T11:23:44;8.52;;;5.10;;
44169;SDS011;29836;52.286;9.576;2023-04-06T11:26:11;17.73;;;7.60;;
44169;SDS011;29836;52.286;9.576;2023-04-06T11:28:38;10.40;;;4.20;;
44169;SDS011;29836;52.286;9.576;2023-04-06T11:31:05;8.65;;;4.05;;
44169;SDS011;29836;52.286;9.576;2023-04-06T11:33:35;15.10;;;5.38;;
44169;SDS011;29836;52.286;9.576;2023-04-06T11:36:01;11.07;;;3.85;;
44169;SDS011;29836;52.286;9.576;2023-04-06T11:38:27;8.57;;;3.78;;
44169;SDS011;29836;52.286;9.576;2023-04-06T11:40:53;6.85;;;3.80;;
44169;SDS011;29836;52.286;9.576;2023-04-06T11:43:25;6.85;;;3.70;;
44169;SDS011;29836;52.286;9.576;2023-04-06T11:45:58;7.05;;;3.95;;
44169;SDS011;29836;52.286;9.576;2023-04-06T11:48:26;7.40;;;3.90;;
44169;SDS011;29836;52.286;9.576;2023-04-06T11:50:55;5.70;;;3.17;;
44169;SDS011;29836;52.286;9.576;2023-04-06T11:53:22;6.03;;;3.45;;
44169;SDS011;29836;52.286;9.576;2023-04-06T11:55:48;8.07;;;3.85;;
44169;SDS011;29836;52.286;9.576;2023-04-06T11:58:13;8.35;;;4.00;;
44169;SDS011;29836;52.286;9.576;2023-04-06T12:00:39;8.25;;;4.05;;
44169;SDS011;29836;52.286;9.576;2023-04-06T12:03:09;8.00;;;4.55;;
44169;SDS011;29836;52.286;9.576;2023-04-06T12:05:35;9.57;;;4.57;;
44169;SDS011;29836;52.286;9.576;2023-04-06T12:08:01;8.40;;;3.72;;
44169;SDS011;29836;52.286;9.576;2023-04-06T12:10:27;6.70;;;3.67;;
44169;SDS011;29836;52.286;9.576;2023-04-06T12:12:52;8.85;;;3.90;;
44169;SDS011;29836;52.286;9.576;2023-04-06T12:15:17;6.28;;;3.75;;
44169;SDS011;29836;52.286;9.576;2023-04-06T12:17:43;13.20;;;3.95;;
44169;SDS011;29836;52.286;9.576;2023-04-06T12:20:09;7.10;;;3.88;;
44169;SDS011;29836;52.286;9.576;2023-04-06T12:22:35;7.90;;;3.78;;
44169;SDS011;29836;52.286;9.576;2023-04-06T12:25:01;7.93;;;3.83;;
44169;SDS011;29836;52.286;9.576;2023-04-06T12:27:26;8.55;;;4.10;;
44169;SDS011;29836;52.286;9.576;2023-04-06T12:29:52;9.13;;;4.60;;
44169;SDS011;29836;52.286;9.576;2023-04-06T12:32:18;9.10;;;4.45;;
44169;SDS011;29836;52.286;9.576;2023-04-06T12:34:44;7.72;;;4.05;;
44169;SDS011;29836;52.286;9.576;2023-04-06T12:37:10;7.80;;;4.78;;
44169;SDS011;29836;52.286;9.576;2023-04-06T12:39:35;7.25;;;4.60;;
44169;SDS011;29836;52.286;9.576;2023-04-06T12:42:01;8.07;;;4.05;;
44169;SDS011;29836;52.286;9.576;2023-04-06T12:44:27;11.07;;;4.32;;
44169;SDS011;29836;52.286;9.576;2023-04-06T12:46:53;13.18;;;4.60;;
44169;SDS011;29836;52.286;9.576;2023-04-06T12:49:20;8.25;;;4.07;;
44169;SDS011;29836;52.286;9.576;2023-04-06T12:51:46;11.45;;;4.10;;
44169;SDS011;29836;52.286;9.576;2023-04-06T12:54:12;10.02;;;5.15;;
44169;SDS011;29836;52.286;9.576;2023-04-06T12:56:38;9.23;;;4.70;;
44169;SDS011;29836;52.286;9.576;2023-04-06T12:59:03;7.65;;;4.10;;
44169;SDS011;29836;52.286;9.576;2023-04-06T13:01:30;8.68;;;4.43;;
44169;SDS011;29836;52.286;9.576;2023-04-06T13:03:56;6.82;;;4.10;;
44169;SDS011;29836;52.286;9.576;2023-04-06T13:06:22;11.02;;;4.82;;
44169;SDS011;29836;52.286;9.576;2023-04-06T13:08:52;8.65;;;4.78;;
44169;SDS011;29836;52.286;9.576;2023-04-06T13:11:17;7.60;;;4.00;;
44169;SDS011;29836;52.286;9.576;2023-04-06T13:13:45;9.55;;;4.70;;
44169;SDS011;29836;52.286;9.576;2023-04-06T13:16:11;7.43;;;4.60;;
44169;SDS011;29836;52.286;9.576;2023-04-06T13:18:36;6.53;;;4.35;;
44169;SDS011;29836;52.286;9.576;2023-04-06T13:21:03;9.55;;;4.28;;
44169;SDS011;29836;52.286;9.576;2023-04-06T13:23:29;10.38;;;5.05;;
44169;SDS011;29836;52.286;9.576;2023-04-06T13:25:59;11.10;;;4.13;;
44169;SDS011;29836;52.286;9.576;2023-04-06T13:28:25;8.00;;;4.18;;
44169;SDS011;29836;52.286;9.576;2023-04-06T13:30:52;8.38;;;4.32;;
44169;SDS011;29836;52.286;9.576;2023-04-06T13:33:18;7.07;;;4.38;;
44169;SDS011;29836;52.286;9.576;2023-04-06T13:35:46;7.88;;;4.30;;
44169;SDS011;29836;52.286;9.576;2023-04-06T13:38:12;6.97;;;4.45;;
44169;SDS011;29836;52.286;9.576;2023-04-06T13:40:39;10.75;;;4.78;;
44169;SDS011;29836;52.286;9.576;2023-04-06T13:43:05;9.32;;;4.50;;
44169;SDS011;29836;52.286;9.576;2023-04-06T13:45:31;8.13;;;4.22;;
44169;SDS011;29836;52.286;9.576;2023-04-06T13:47:56;10.70;;;4.75;;
44169;SDS011;29836;52.286;9.576;2023-04-06T13:50:22;6.72;;;3.85;;
44169;SDS011;29836;52.286;9.576;2023-04-06T13:52:50;7.57;;;3.70;;
44169;SDS011;29836;52.286;9.576;2023-04-06T13:55:15;6.55;;;3.90;;
44169;SDS011;29836;52.286;9.576;2023-04-06T13:57:41;10.85;;;5.00;;
44169;SDS011;29836;52.286;9.576;2023-04-06T14:00:07;9.18;;;4.57;;
44169;SDS011;29836;52.286;9.576;2023-04-06T14:02:34;7.32;;;3.80;;
44169;SDS011;29836;52.286;9.576;2023-04-06T14:04:59;9.90;;;4.00;;
44169;SDS011;29836;52.286;9.576;2023-04-06T14:07:25;9.43;;;4.13;;
44169;SDS011;29836;52.286;9.576;2023-04-06T14:09:51;7.30;;;3.47;;
44169;SDS011;29836;52.286;9.576;2023-04-06T14:12:16;7.22;;;3.80;;
44169;SDS011;29836;52.286;9.576;2023-04-06T14:14:42;7.68;;;4.13;;
44169;SDS011;29836;52.286;9.576;2023-04-06T14:17:07;8.60;;;4.40;;
44169;SDS011;29836;52.286;9.576;2023-04-06T14:19:33;9.65;;;4.20;;
44169;SDS011;29836;52.286;9.576;2023-04-06T14:21:59;7.70;;;3.47;;
44169;SDS011;29836;52.286;9.576;2023-04-06T14:24:25;8.43;;;3.85;;
44169;SDS011;29836;52.286;9.576;2023-04-06T14:26:51;7.78;;;4.43;;
44169;SDS011;29836;52.286;9.576;2023-04-06T14:29:16;9.32;;;4.28;;
44169;SDS011;29836;52.286;9.576;2023-04-06T14:31:42;8.00;;;4.28;;
44169;SDS011;29836;52.286;9.576;2023-04-06T14:34:09;8.93;;;4.05;;
44169;SDS011;29836;52.286;9.576;2023-04-06T14:36:35;8.82;;;4.50;;
44169;SDS011;29836;52.286;9.576;2023-04-06T14:39:05;10.80;;;4.75;;
44169;SDS011;29836;52.286;9.576;2023-04-06T14:41:32;6.80;;;3.70;;
44169;SDS011;29836;52.286;9.576;2023-04-06T14:43:59;8.20;;;3.97;;
44169;SDS011;29836;52.286;9.576;2023-04-06T14:46:25;6.85;;;3.80;;
44169;SDS011;29836;52.286;9.576;2023-04-06T14:48:51;7.30;;;3.78;;
44169;SDS011;29836;52.286;9.576;2023-04-06T14:51:19;9.77;;;3.75;;
44169;SDS011;29836;52.286;9.576;2023-04-06T14:53:44;9.43;;;4.20;;